createdAt,value
2023-04-23T00:01:02.633Z,14.60
2023-04-23T00:03:34.691Z,14.50
2023-04-23T00:06:07.986Z,14.40
2023-04-23T00:08:36.797Z,14.40
2023-04-23T00:11:06.529Z,14.40
2023-04-23T00:13:35.243Z,14.40
2023-04-23T00:16:03.984Z,14.30
2023-04-23T00:18:34.056Z,14.20
2023-04-23T00:21:02.410Z,14.10
2023-04-23T00:23:30.835Z,14.10
2023-04-23T00:25:59.313Z,14.10
2023-04-23T00:28:27.668Z,14.10
2023-04-23T00:30:56.069Z,14.00
2023-04-23T00:33:24.581Z,13.80
2023-04-23T00:35:54.321Z,13.80
2023-04-23T00:38:23.539Z,13.80
2023-04-23T00:40:52.003Z,13.80
2023-04-23T00:43:20.750Z,13.80
2023-04-23T00:45:50.186Z,13.90
2023-04-23T00:48:19.088Z,14.00
2023-04-23T00:50:48.027Z,14.10
2023-04-23T00:53:17.738Z,14.10
2023-04-23T00:55:46.237Z,14.10
2023-04-23T00:58:14.587Z,14.10
2023-04-23T01:00:48.602Z,14.00
2023-04-23T01:03:18.507Z,14.00
2023-04-23T01:05:47.160Z,13.90
2023-04-23T01:08:18.381Z,13.80
2023-04-23T01:10:47.397Z,13.70
2023-04-23T01:13:16.087Z,13.60
2023-04-23T01:15:45.973Z,13.60
2023-04-23T01:18:15.535Z,13.70
2023-04-23T01:20:44.398Z,13.80
2023-04-23T01:23:14.380Z,13.80
2023-04-23T01:25:43.521Z,13.70
2023-04-23T01:28:12.040Z,13.70
2023-04-23T01:30:41.753Z,13.70
2023-04-23T01:33:10.625Z,13.70
2023-04-23T01:35:39.520Z,13.60
2023-04-23T01:38:10.388Z,13.60
2023-04-23T01:40:40.238Z,13.50
2023-04-23T01:43:09.899Z,13.50
2023-04-23T01:45:38.495Z,13.50
2023-04-23T01:48:07.149Z,13.50
2023-04-23T01:50:36.252Z,13.50
2023-04-23T01:53:04.568Z,13.50
2023-04-23T01:55:34.014Z,13.30
2023-04-23T01:58:03.865Z,13.20
2023-04-23T02:00:32.196Z,13.00
2023-04-23T02:03:00.647Z,12.90
2023-04-23T02:05:30.862Z,13.00
2023-04-23T02:07:59.359Z,13.00
2023-04-23T02:10:27.746Z,13.00
2023-04-23T02:12:56.228Z,13.00
2023-04-23T02:15:25.988Z,13.10
2023-04-23T02:17:55.001Z,13.10
2023-04-23T02:20:23.714Z,13.10
2023-04-23T02:22:52.089Z,13.20
2023-04-23T02:25:22.076Z,13.20
2023-04-23T02:27:50.726Z,13.10
2023-04-23T02:30:19.099Z,13.10
2023-04-23T02:32:48.907Z,13.00
2023-04-23T02:35:17.285Z,12.90
2023-04-23T02:37:45.827Z,13.00
2023-04-23T02:40:14.349Z,13.00
2023-04-23T02:42:44.013Z,12.90
2023-04-23T02:45:13.074Z,12.90
2023-04-23T02:47:41.533Z,12.90
2023-04-23T02:50:11.791Z,12.90
2023-04-23T02:52:40.238Z,12.90
2023-04-23T02:55:10.935Z,12.90
2023-04-23T02:57:41.078Z,12.80
2023-04-23T03:00:12.431Z,12.60
2023-04-23T03:02:43.933Z,12.60
2023-04-23T03:05:15.134Z,12.60
2023-04-23T03:07:43.826Z,12.50
2023-04-23T03:10:12.448Z,12.50
2023-04-23T03:12:40.739Z,12.50
2023-04-23T03:15:10.441Z,12.40
2023-04-23T03:17:39.593Z,12.40
2023-04-23T03:20:11.036Z,12.50
2023-04-23T03:22:41.783Z,12.60
2023-04-23T03:25:11.226Z,12.70
2023-04-23T03:27:41.365Z,12.70
2023-04-23T03:30:11.106Z,12.70
2023-04-23T03:32:40.001Z,12.80
2023-04-23T03:35:09.963Z,12.70
2023-04-23T03:37:43.151Z,12.50
2023-04-23T03:40:12.163Z,12.50
2023-04-23T03:42:42.627Z,12.50
2023-04-23T03:45:14.658Z,12.50
2023-04-23T03:47:44.501Z,12.60
2023-04-23T03:50:13.969Z,12.60
2023-04-23T03:52:46.139Z,12.60
2023-04-23T03:55:24.073Z,12.50
2023-04-23T03:57:52.470Z,12.50
2023-04-23T04:00:24.532Z,12.50
2023-04-23T04:02:53.123Z,12.50
2023-04-23T04:05:24.200Z,12.60
2023-04-23T04:07:56.702Z,12.70
2023-04-23T04:10:27.100Z,12.70
2023-04-23T04:12:55.446Z,12.80
2023-04-23T04:15:24.153Z,12.80
2023-04-23T04:17:52.580Z,12.80
2023-04-23T04:20:21.098Z,12.80
2023-04-23T04:22:49.450Z,12.90
2023-04-23T04:25:19.139Z,12.90
2023-04-23T04:27:48.060Z,12.90
2023-04-23T04:30:16.672Z,12.80
2023-04-23T04:32:45.831Z,12.90
2023-04-23T04:35:14.936Z,12.90
2023-04-23T04:37:44.608Z,12.80
2023-04-23T04:40:15.257Z,12.90
2023-04-23T04:42:47.064Z,13.00
2023-04-23T04:45:15.580Z,13.10
2023-04-23T04:47:43.923Z,13.20
2023-04-23T04:50:12.918Z,13.20
2023-04-23T04:52:41.228Z,13.20
2023-04-23T04:55:10.503Z,13.10
2023-04-23T04:57:38.861Z,13.00
2023-04-23T05:00:24.013Z,13.10
2023-04-23T05:02:54.683Z,13.20
2023-04-23T05:05:24.848Z,13.30
2023-04-23T05:07:54.453Z,13.40
2023-04-23T05:10:23.027Z,13.50
2023-04-23T05:12:52.069Z,13.60
2023-04-23T05:15:22.019Z,13.60
2023-04-23T05:17:53.766Z,13.70
2023-04-23T05:20:22.743Z,13.80
2023-04-23T05:22:51.064Z,13.90
2023-04-23T05:25:19.525Z,14.00
2023-04-23T05:27:47.913Z,14.20
2023-04-23T05:30:16.615Z,14.20
2023-04-23T05:32:46.365Z,14.30
2023-04-23T05:35:14.700Z,14.40
2023-04-23T05:37:43.189Z,14.60
2023-04-23T05:40:12.361Z,14.60
2023-04-23T05:42:40.714Z,14.80
2023-04-23T05:45:10.201Z,14.90
2023-04-23T05:47:38.599Z,14.90
2023-04-23T05:50:11.670Z,15.00
2023-04-23T05:52:40.062Z,14.90
2023-04-23T05:55:09.834Z,14.90
2023-04-23T05:57:39.752Z,14.90
2023-04-23T06:00:11.849Z,14.90
2023-04-23T06:02:43.991Z,15.00
2023-04-23T06:05:13.932Z,15.10
2023-04-23T06:07:43.405Z,15.20
2023-04-23T06:10:12.766Z,15.30
2023-04-23T06:12:42.373Z,15.40
2023-04-23T06:15:12.125Z,15.50
2023-04-23T06:17:41.234Z,15.60
2023-04-23T06:20:12.063Z,15.70
2023-04-23T06:22:41.981Z,15.80
2023-04-23T06:25:11.106Z,15.90
2023-04-23T06:27:39.542Z,16.00
2023-04-23T06:30:15.176Z,16.20
2023-04-23T06:32:43.667Z,16.10
2023-04-23T06:35:12.024Z,16.20
2023-04-23T06:37:41.877Z,16.20
2023-04-23T06:40:11.266Z,16.30
2023-04-23T06:42:39.589Z,16.30
2023-04-23T06:45:33.377Z,16.30
2023-04-23T06:48:02.632Z,16.50
2023-04-23T06:50:31.125Z,16.70
2023-04-23T06:53:01.007Z,16.60
2023-04-23T06:55:29.427Z,16.60
2023-04-23T06:57:58.123Z,16.50
2023-04-23T07:00:26.621Z,16.50
2023-04-23T07:02:55.119Z,16.80
2023-04-23T07:05:23.639Z,16.90
2023-04-23T07:07:53.346Z,17.30
2023-04-23T07:10:23.262Z,17.70
2023-04-23T07:12:51.786Z,18.10
2023-04-23T07:15:20.214Z,18.20
2023-04-23T07:17:49.638Z,18.30
2023-04-23T07:20:18.168Z,18.40
2023-04-23T07:22:47.394Z,18.60
2023-04-23T07:25:15.758Z,18.70
2023-04-23T07:27:45.472Z,18.70
2023-04-23T07:30:14.702Z,18.80
2023-04-23T07:32:43.039Z,18.80
2023-04-23T07:35:11.687Z,18.70
2023-04-23T07:37:40.257Z,18.70
2023-04-23T07:40:09.910Z,18.70
2023-04-23T07:42:38.214Z,18.90
2023-04-23T07:45:09.245Z,18.80
2023-04-23T07:47:38.629Z,18.90
2023-04-23T07:50:08.350Z,18.60
2023-04-23T07:52:36.838Z,18.70
2023-04-23T07:55:05.674Z,18.80
2023-04-23T07:57:34.085Z,18.80
2023-04-23T08:00:02.568Z,18.60
2023-04-23T08:02:41.732Z,18.40
2023-04-23T08:05:11.142Z,18.50
2023-04-23T08:07:40.452Z,18.40
2023-04-23T08:10:10.865Z,18.50
2023-04-23T08:12:39.147Z,18.50
2023-04-23T08:15:08.465Z,18.60
2023-04-23T08:17:42.647Z,18.80
2023-04-23T08:20:12.677Z,18.80
2023-04-23T08:22:41.001Z,18.80
2023-04-23T08:25:10.746Z,18.70
2023-04-23T08:27:39.090Z,18.70
2023-04-23T08:30:09.651Z,18.80
2023-04-23T08:32:38.305Z,18.90
2023-04-23T08:35:09.687Z,18.90
2023-04-23T08:37:40.266Z,19.00
2023-04-23T08:40:09.800Z,18.90
2023-04-23T08:42:42.980Z,19.10
2023-04-23T08:45:12.629Z,19.20
2023-04-23T08:47:43.415Z,19.30
2023-04-23T08:50:16.482Z,19.40
2023-04-23T08:52:49.041Z,19.60
2023-04-23T08:55:18.925Z,19.70
2023-04-23T08:57:48.006Z,19.80
2023-04-23T09:00:17.965Z,19.70
2023-04-23T09:02:48.088Z,19.70
2023-04-23T09:05:18.009Z,19.60
2023-04-23T09:07:46.854Z,19.60
2023-04-23T09:10:18.414Z,19.70
2023-04-23T09:12:48.360Z,19.60
2023-04-23T09:15:18.041Z,19.60
2023-04-23T09:17:48.397Z,19.90
2023-04-23T09:20:18.805Z,20.00
2023-04-23T09:22:49.057Z,19.70
2023-04-23T09:25:20.655Z,19.70
2023-04-23T09:27:50.318Z,19.80
2023-04-23T09:30:20.122Z,20.00
2023-04-23T09:32:49.659Z,19.90
2023-04-23T09:35:20.913Z,19.90
2023-04-23T09:37:53.417Z,19.80
2023-04-23T09:40:23.693Z,20.00
2023-04-23T09:42:54.564Z,19.90
2023-04-23T09:45:25.135Z,20.10
2023-04-23T09:47:55.000Z,20.40
2023-04-23T09:50:34.317Z,20.70
2023-04-23T09:53:02.850Z,20.50
2023-04-23T09:55:35.951Z,20.50
2023-04-23T09:58:07.226Z,20.70
2023-04-23T10:00:36.855Z,20.80
2023-04-23T10:03:06.804Z,21.00
2023-04-23T10:05:56.280Z,21.00
2023-04-23T10:08:29.381Z,20.90
2023-04-23T10:11:09.686Z,20.90
2023-04-23T10:13:46.563Z,20.80
2023-04-23T10:16:22.379Z,20.80
2023-04-23T10:18:57.147Z,20.90
2023-04-23T10:21:36.731Z,21.10
2023-04-23T10:24:16.155Z,21.20
2023-04-23T10:26:45.652Z,21.30
2023-04-23T10:29:17.350Z,21.40
2023-04-23T10:31:47.283Z,21.30
2023-04-23T10:34:17.441Z,21.40
2023-04-23T10:36:47.301Z,21.30
2023-04-23T10:39:24.004Z,21.40
2023-04-23T10:41:58.655Z,21.40
2023-04-23T10:44:56.508Z,21.50
2023-04-23T10:47:23.790Z,21.70
2023-04-23T10:49:52.966Z,21.90
2023-04-23T10:52:25.141Z,22.20
2023-04-23T10:55:00.155Z,22.40
2023-04-23T10:57:28.924Z,22.40
2023-04-23T10:59:59.019Z,22.40
2023-04-23T11:02:43.690Z,22.60
2023-04-23T11:05:12.374Z,22.80
2023-04-23T11:07:42.138Z,22.80
2023-04-23T11:10:14.936Z,22.90
2023-04-23T11:12:45.422Z,23.20
2023-04-23T11:15:16.174Z,23.30
2023-04-23T11:18:02.777Z,23.20
2023-04-23T11:20:31.353Z,23.10
2023-04-23T11:23:01.170Z,23.10
2023-04-23T11:25:30.581Z,23.00
2023-04-23T11:27:59.984Z,22.80
2023-04-23T11:30:30.004Z,22.50
2023-04-23T11:33:00.336Z,22.40
2023-04-23T11:35:32.065Z,22.70
2023-04-23T11:38:01.805Z,23.00
2023-04-23T11:40:31.122Z,22.80
2023-04-23T11:42:59.626Z,22.90
2023-04-23T11:45:29.985Z,23.00
2023-04-23T11:47:59.870Z,23.00
2023-04-23T11:50:29.837Z,23.00
2023-04-23T11:52:58.632Z,23.10
2023-04-23T11:55:30.728Z,23.40
2023-04-23T11:57:59.156Z,23.20
2023-04-23T12:00:28.556Z,23.10
2023-04-23T12:02:59.283Z,22.60
2023-04-23T12:05:30.481Z,22.20
2023-04-23T12:08:10.189Z,22.00
2023-04-23T12:10:47.158Z,22.00
2023-04-23T12:13:16.543Z,21.90
2023-04-23T12:15:50.191Z,22.00
2023-04-23T12:18:19.001Z,22.00
2023-04-23T12:20:47.578Z,22.00
2023-04-23T12:23:16.018Z,21.80
2023-04-23T12:25:46.137Z,21.80
2023-04-23T12:28:14.598Z,21.80
2023-04-23T12:30:46.189Z,22.10
2023-04-23T12:33:14.928Z,22.60
2023-04-23T12:35:44.767Z,23.20
2023-04-23T12:38:24.824Z,23.20
2023-04-23T12:40:55.460Z,23.20
2023-04-23T12:43:24.535Z,23.30
2023-04-23T12:45:53.343Z,23.60
2023-04-23T12:48:21.893Z,24.00
2023-04-23T12:50:50.338Z,24.30
2023-04-23T12:53:19.851Z,24.30
2023-04-23T12:55:49.057Z,24.10
2023-04-23T12:58:18.874Z,24.00
2023-04-23T13:00:47.566Z,24.00
2023-04-23T13:03:17.600Z,24.40
2023-04-23T13:05:46.139Z,24.40
2023-04-23T13:08:14.564Z,24.00
2023-04-23T13:10:42.900Z,23.80
2023-04-23T13:13:11.291Z,23.70
2023-04-23T13:15:41.290Z,23.50
2023-04-23T13:18:09.692Z,23.40
2023-04-23T13:20:37.989Z,23.40
2023-04-23T13:23:08.832Z,23.40
2023-04-23T13:25:37.248Z,23.50
2023-04-23T13:28:05.600Z,24.10
2023-04-23T13:30:34.138Z,24.70
2023-04-23T13:33:04.124Z,25.30
2023-04-23T13:35:32.668Z,25.40
2023-04-23T13:38:01.111Z,25.50
2023-04-23T13:40:29.544Z,26.10
2023-04-23T13:42:57.896Z,26.40
2023-04-23T13:45:28.318Z,27.30
2023-04-23T13:47:56.791Z,28.00
2023-04-23T13:50:26.803Z,28.30
2023-04-23T13:52:56.272Z,28.00
2023-04-23T13:55:24.676Z,28.20
2023-04-23T13:57:54.573Z,28.00
2023-04-23T14:00:22.986Z,28.50
2023-04-23T14:02:53.050Z,28.60
2023-04-23T14:05:21.492Z,30.30
2023-04-23T14:07:51.572Z,31.00
2023-04-23T14:10:19.989Z,31.70
2023-04-23T14:12:48.552Z,31.10
2023-04-23T14:15:17.535Z,29.80
2023-04-23T14:17:46.011Z,30.20
2023-04-23T14:20:15.677Z,31.90
2023-04-23T14:22:44.311Z,33.20
2023-04-23T14:25:17.118Z,33.80
2023-04-23T14:27:47.734Z,32.60
2023-04-23T14:30:18.001Z,32.70
2023-04-23T14:32:49.413Z,33.60
2023-04-23T14:35:21.283Z,32.90
2023-04-23T14:37:55.408Z,32.30
2023-04-23T14:40:25.365Z,32.60
2023-04-23T14:42:55.191Z,32.80
2023-04-23T14:45:25.882Z,31.10
2023-04-23T14:47:54.272Z,30.70
2023-04-23T14:50:22.770Z,30.60
2023-04-23T14:52:52.170Z,29.90
2023-04-23T14:55:20.814Z,30.00
2023-04-23T14:57:50.584Z,29.30
2023-04-23T15:00:19.561Z,29.20
2023-04-23T15:02:48.052Z,29.20
2023-04-23T15:05:20.118Z,30.30
2023-04-23T15:07:48.665Z,30.30
2023-04-23T15:10:17.000Z,30.40
2023-04-23T15:12:55.531Z,30.30
2023-04-23T15:15:41.194Z,30.70
2023-04-23T15:18:13.283Z,30.30
2023-04-23T15:20:41.757Z,30.60
2023-04-23T15:23:10.905Z,29.70
2023-04-23T15:25:39.525Z,29.40
2023-04-23T15:28:09.586Z,29.00
2023-04-23T15:30:39.766Z,27.80
2023-04-23T15:33:08.241Z,26.90
2023-04-23T15:35:36.910Z,25.70
2023-04-23T15:38:05.373Z,24.90
2023-04-23T15:40:42.117Z,24.10
2023-04-23T15:43:14.432Z,24.00
2023-04-23T15:45:42.948Z,24.40
2023-04-23T15:48:11.303Z,25.00
2023-04-23T15:50:39.794Z,26.30
2023-04-23T15:53:08.330Z,27.00
2023-04-23T15:55:39.051Z,27.90
2023-04-23T15:58:08.120Z,28.00
2023-04-23T16:00:38.005Z,27.80
2023-04-23T16:03:09.132Z,27.50
2023-04-23T16:05:37.698Z,28.30
2023-04-23T16:08:06.333Z,28.20
2023-04-23T16:10:35.156Z,28.70
2023-04-23T16:13:04.000Z,29.30
2023-04-23T16:15:32.532Z,29.70
2023-04-23T16:18:02.284Z,29.00
2023-04-23T16:20:31.637Z,29.00
2023-04-23T16:23:00.153Z,28.90
2023-04-23T16:25:28.687Z,28.60
2023-04-23T16:27:58.063Z,28.70
2023-04-23T16:30:26.720Z,28.60
2023-04-23T16:32:55.038Z,28.10
2023-04-23T16:35:24.879Z,28.10
2023-04-23T16:37:53.604Z,27.80
2023-04-23T16:40:22.132Z,27.20
2023-04-23T16:42:53.222Z,27.30
2023-04-23T16:45:23.228Z,27.50
2023-04-23T16:47:51.752Z,27.50
2023-04-23T16:50:20.330Z,26.70
2023-04-23T16:52:50.361Z,26.60
2023-04-23T16:55:18.981Z,26.60
2023-04-23T16:57:50.744Z,25.90
2023-04-23T17:00:19.643Z,25.20
2023-04-23T17:02:48.141Z,24.90
2023-04-23T17:05:17.017Z,24.60
2023-04-23T17:07:45.554Z,24.30
2023-04-23T17:10:17.402Z,23.60
2023-04-23T17:12:45.870Z,22.80
2023-04-23T17:15:14.347Z,22.00
2023-04-23T17:17:43.011Z,21.60
2023-04-23T17:20:11.621Z,21.40
2023-04-23T17:22:40.381Z,21.30
2023-04-23T17:25:10.037Z,21.00
2023-04-23T17:27:39.851Z,20.70
2023-04-23T17:30:09.551Z,20.50
2023-04-23T17:32:38.216Z,20.40
2023-04-23T17:35:10.574Z,20.40
2023-04-23T17:37:39.536Z,20.40
2023-04-23T17:40:09.770Z,20.30
2023-04-23T17:42:39.661Z,20.20
2023-04-23T17:45:09.039Z,20.20
2023-04-23T17:47:37.769Z,20.10
2023-04-23T17:50:09.430Z,20.00
2023-04-23T17:52:37.957Z,20.00
2023-04-23T17:55:07.308Z,19.90
2023-04-23T17:57:35.710Z,19.80
2023-04-23T18:00:09.820Z,19.70
2023-04-23T18:02:41.693Z,19.70
2023-04-23T18:05:11.089Z,19.60
2023-04-23T18:07:40.652Z,19.50
2023-04-23T18:10:10.439Z,19.40
2023-04-23T18:12:39.549Z,19.20
2023-04-23T18:15:12.477Z,19.20
2023-04-23T18:17:41.036Z,19.10
2023-04-23T18:20:10.633Z,19.10
2023-04-23T18:22:39.443Z,19.10
2023-04-23T18:25:10.142Z,19.00
2023-04-23T18:27:38.528Z,18.80
2023-04-23T18:30:09.817Z,18.80
2023-04-23T18:32:44.696Z,18.80
2023-04-23T18:35:13.166Z,18.60
2023-04-23T18:37:44.852Z,18.50
2023-04-23T18:40:13.644Z,18.40
2023-04-23T18:42:42.034Z,18.20
2023-04-23T18:45:12.852Z,18.00
2023-04-23T18:47:45.471Z,17.80
2023-04-23T18:50:38.389Z,17.50
2023-04-23T18:53:08.413Z,17.40
2023-04-23T18:55:37.133Z,17.20
2023-04-23T18:58:05.500Z,17.20
2023-04-23T19:00:35.321Z,17.20
2023-04-23T19:03:12.033Z,17.30
2023-04-23T19:05:49.318Z,17.30
2023-04-23T19:08:17.731Z,17.40
2023-04-23T19:10:46.175Z,17.40
2023-04-23T19:13:14.578Z,17.40
2023-04-23T19:15:44.461Z,17.40
2023-04-23T19:18:12.952Z,17.40
2023-04-23T19:20:41.405Z,17.30
2023-04-23T19:23:09.985Z,17.30
2023-04-23T19:25:38.616Z,17.30
2023-04-23T19:28:07.072Z,17.30
2023-04-23T19:30:35.619Z,17.20
2023-04-23T19:33:05.558Z,17.20
2023-04-23T19:35:33.962Z,17.20
2023-04-23T19:38:02.298Z,17.20
2023-04-23T19:40:30.850Z,17.00
2023-04-23T19:42:59.223Z,16.90
2023-04-23T19:45:30.045Z,16.70
2023-04-23T19:47:58.725Z,16.70
2023-04-23T19:50:28.641Z,16.70
2023-04-23T19:52:57.157Z,16.70
2023-04-23T19:55:27.148Z,16.80
2023-04-23T19:57:56.053Z,16.80
2023-04-23T20:00:24.734Z,16.70
2023-04-23T20:02:54.248Z,16.80
2023-04-23T20:05:23.487Z,16.70
2023-04-23T20:07:53.905Z,16.70
2023-04-23T20:10:22.340Z,16.60
2023-04-23T20:12:50.663Z,16.60
2023-04-23T20:15:21.702Z,16.70
2023-04-23T20:17:51.004Z,16.60
2023-04-23T20:20:21.693Z,16.60
2023-04-23T20:22:50.248Z,16.50
2023-04-23T20:25:22.173Z,16.60
2023-04-23T20:27:52.406Z,16.60
2023-04-23T20:30:20.944Z,16.60
2023-04-23T20:32:49.443Z,16.60
2023-04-23T20:35:17.926Z,16.60
2023-04-23T20:37:46.305Z,16.60
2023-04-23T20:40:15.432Z,16.50
2023-04-23T20:42:46.588Z,16.40
2023-04-23T20:45:14.949Z,16.30
2023-04-23T20:47:44.607Z,16.40
2023-04-23T20:50:14.079Z,16.30
2023-04-23T20:52:42.624Z,16.30
2023-04-23T20:55:11.306Z,16.30
2023-04-23T20:57:40.331Z,16.10
2023-04-23T21:00:14.250Z,16.20
2023-04-23T21:02:43.108Z,16.30
2023-04-23T21:05:13.328Z,16.30
2023-04-23T21:07:41.822Z,16.10
2023-04-23T21:10:10.653Z,16.20
2023-04-23T21:12:39.798Z,16.20
2023-04-23T21:15:12.755Z,16.20
2023-04-23T21:17:41.186Z,16.20
2023-04-23T21:20:10.701Z,16.10
2023-04-23T21:22:39.237Z,16.00
2023-04-23T21:25:08.339Z,15.90
2023-04-23T21:27:37.000Z,15.80
2023-04-23T21:30:09.849Z,15.80
2023-04-23T21:32:40.093Z,15.90
2023-04-23T21:35:09.351Z,15.90
2023-04-23T21:37:38.191Z,15.90
2023-04-23T21:40:08.522Z,15.80
2023-04-23T21:42:37.883Z,15.80
2023-04-23T21:45:07.533Z,15.80
2023-04-23T21:47:35.937Z,15.80
2023-04-23T21:50:06.576Z,15.70
2023-04-23T21:52:35.060Z,15.60
2023-04-23T21:55:03.422Z,15.60
2023-04-23T21:57:32.106Z,15.70
2023-04-23T22:00:00.521Z,15.60
2023-04-23T22:02:29.113Z,15.60
2023-04-23T22:04:57.681Z,15.60
2023-04-23T22:07:29.517Z,15.50
2023-04-23T22:10:00.318Z,15.50
2023-04-23T22:12:29.562Z,15.50
2023-04-23T22:14:57.930Z,15.50
2023-04-23T22:17:30.474Z,15.40
2023-04-23T22:19:59.872Z,15.20
2023-04-23T22:22:29.606Z,15.10
2023-04-23T22:24:57.972Z,15.20
2023-04-23T22:27:26.271Z,15.20
2023-04-23T22:29:54.911Z,15.20
2023-04-23T22:32:23.307Z,15.10
2023-04-23T22:34:52.877Z,15.10
2023-04-23T22:37:21.962Z,15.00
2023-04-23T22:39:51.886Z,15.00
2023-04-23T22:42:20.793Z,14.90
2023-04-23T22:44:49.253Z,14.90
2023-04-23T22:47:17.947Z,15.00
2023-04-23T22:49:46.782Z,15.00
2023-04-23T22:52:15.958Z,15.10
2023-04-23T22:54:45.710Z,15.00
2023-04-23T22:57:15.813Z,15.00
2023-04-23T22:59:45.285Z,14.90
2023-04-23T23:02:13.740Z,14.90
2023-04-23T23:04:42.376Z,14.90
2023-04-23T23:07:10.946Z,14.90
2023-04-23T23:09:39.503Z,14.80
2023-04-23T23:12:08.392Z,14.80
2023-04-23T23:14:38.396Z,14.80
2023-04-23T23:17:06.823Z,14.70
2023-04-23T23:19:35.197Z,14.80
2023-04-23T23:22:03.999Z,14.70
2023-04-23T23:24:32.345Z,14.70
2023-04-23T23:27:01.496Z,14.70
2023-04-23T23:29:29.840Z,14.70
2023-04-23T23:32:00.027Z,14.60
2023-04-23T23:34:29.363Z,14.70
2023-04-23T23:36:57.753Z,14.80
2023-04-23T23:39:27.500Z,14.90
2023-04-23T23:41:58.383Z,14.80
2023-04-23T23:44:28.160Z,14.90
2023-04-23T23:46:56.941Z,14.90
2023-04-23T23:49:27.069Z,14.90
2023-04-23T23:51:55.859Z,14.90
2023-04-23T23:54:24.230Z,14.90
2023-04-23T23:56:52.811Z,14.90
2023-04-23T23:59:21.197Z,14.80
